createdAt,value
2018-09-28T00:01:25.214Z,99.90
2018-09-28T00:03:53.917Z,99.90
2018-09-28T00:06:22.318Z,99.90
2018-09-28T00:08:51.166Z,99.90
2018-09-28T00:11:19.610Z,99.90
2018-09-28T00:13:48.049Z,99.90
2018-09-28T00:16:16.474Z,99.90
2018-09-28T00:18:44.845Z,99.90
2018-09-28T00:21:13.253Z,99.90
2018-09-28T00:23:42.499Z,99.90
2018-09-28T00:26:10.947Z,99.90
2018-09-28T00:28:39.417Z,99.90
2018-09-28T00:31:07.814Z,99.90
2018-09-28T00:33:36.171Z,99.90
2018-09-28T00:36:04.618Z,99.90
2018-09-28T00:38:33.090Z,99.90
2018-09-28T00:41:01.568Z,99.90
2018-09-28T00:43:30.235Z,99.90
2018-09-28T00:45:58.638Z,99.90
2018-09-28T00:48:27.097Z,99.90
2018-09-28T00:50:55.649Z,99.90
2018-09-28T00:53:24.014Z,99.90
2018-09-28T00:55:52.509Z,99.90
2018-09-28T00:58:20.988Z,99.90
2018-09-28T01:00:49.479Z,99.90
2018-09-28T01:03:18.181Z,99.90
2018-09-28T01:05:46.721Z,99.90
2018-09-28T01:08:15.146Z,99.90
2018-09-28T01:10:43.486Z,99.90
2018-09-28T01:13:12.210Z,99.90
2018-09-28T01:15:40.530Z,99.90
2018-09-28T01:18:09.053Z,99.90
2018-09-28T01:20:37.475Z,99.90
2018-09-28T01:23:05.813Z,99.90
2018-09-28T01:25:34.279Z,99.90
2018-09-28T01:28:02.950Z,99.90
2018-09-28T01:30:31.494Z,99.90
2018-09-28T01:32:59.833Z,99.90
2018-09-28T01:35:28.286Z,99.90
2018-09-28T01:37:56.932Z,99.90
2018-09-28T01:40:25.458Z,99.90
2018-09-28T01:42:53.937Z,99.90
2018-09-28T01:45:22.573Z,99.90
2018-09-28T01:47:51.033Z,99.90
2018-09-28T01:50:19.401Z,99.90
2018-09-28T01:52:47.863Z,99.90
2018-09-28T01:55:16.250Z,99.90
2018-09-28T01:57:44.625Z,99.90
2018-09-28T02:00:12.997Z,99.90
2018-09-28T02:02:41.484Z,99.90
2018-09-28T02:05:10.177Z,99.90
2018-09-28T02:07:38.700Z,99.90
2018-09-28T02:10:07.167Z,99.90
2018-09-28T02:12:35.636Z,99.90
2018-09-28T02:15:04.084Z,99.90
2018-09-28T02:17:32.413Z,99.90
2018-09-28T02:20:00.783Z,99.90
2018-09-28T02:22:29.133Z,99.90
2018-09-28T02:24:57.579Z,99.90
2018-09-28T02:27:25.922Z,99.90
2018-09-28T02:29:54.273Z,99.90
2018-09-28T02:32:22.653Z,99.90
2018-09-28T02:34:51.193Z,99.90
2018-09-28T02:37:19.549Z,99.90
2018-09-28T02:39:47.947Z,99.90
2018-09-28T02:42:16.452Z,99.90
2018-09-28T02:44:44.899Z,99.90
2018-09-28T02:47:13.341Z,99.90
2018-09-28T02:49:41.686Z,99.90
2018-09-28T02:52:10.220Z,99.90
2018-09-28T02:54:38.661Z,99.90
2018-09-28T02:57:07.188Z,99.90
2018-09-28T02:59:35.691Z,99.90
2018-09-28T03:02:04.030Z,99.90
2018-09-28T03:04:32.469Z,99.90
2018-09-28T03:07:00.838Z,99.90
2018-09-28T03:09:29.282Z,99.90
2018-09-28T03:11:57.700Z,99.90
2018-09-28T03:14:26.052Z,99.90
2018-09-28T03:16:54.547Z,99.90
2018-09-28T03:19:22.951Z,99.90
2018-09-28T03:21:51.322Z,99.90
2018-09-28T03:24:19.714Z,99.90
2018-09-28T03:26:48.141Z,99.90
2018-09-28T03:29:16.566Z,99.90
2018-09-28T03:31:45.030Z,99.90
2018-09-28T03:34:13.510Z,99.90
2018-09-28T03:36:41.953Z,99.90
2018-09-28T03:39:10.391Z,99.90
2018-09-28T03:41:38.830Z,99.90
2018-09-28T03:44:07.276Z,99.90
2018-09-28T03:46:35.922Z,99.90
2018-09-28T03:49:04.269Z,99.90
2018-09-28T03:51:32.726Z,99.90
2018-09-28T03:54:01.041Z,99.90
2018-09-28T03:56:29.489Z,99.90
2018-09-28T03:58:58.027Z,99.90
2018-09-28T04:01:26.487Z,99.90
2018-09-28T04:03:54.898Z,99.90
2018-09-28T04:06:23.600Z,99.90
2018-09-28T04:08:51.988Z,99.90
2018-09-28T04:11:20.460Z,99.90
2018-09-28T04:13:48.806Z,99.90
2018-09-28T04:16:17.209Z,99.90
2018-09-28T04:18:45.958Z,99.90
2018-09-28T04:21:14.371Z,99.90
2018-09-28T04:23:42.713Z,99.90
2018-09-28T04:26:11.189Z,99.90
2018-09-28T04:28:39.715Z,99.90
2018-09-28T04:31:08.116Z,99.90
2018-09-28T04:33:36.662Z,99.90
2018-09-28T04:36:05.291Z,99.90
2018-09-28T04:38:33.682Z,99.90
2018-09-28T04:41:02.082Z,99.90
2018-09-28T04:43:30.466Z,99.90
2018-09-28T04:45:58.920Z,99.90
2018-09-28T04:48:27.254Z,99.90
2018-09-28T04:50:55.670Z,99.90
2018-09-28T04:53:23.991Z,99.90
2018-09-28T04:55:52.525Z,99.90
2018-09-28T04:58:20.946Z,99.90
2018-09-28T05:00:50.077Z,99.90
2018-09-28T05:03:18.469Z,99.90
2018-09-28T05:05:47.375Z,99.90
2018-09-28T05:08:15.847Z,99.90
2018-09-28T05:10:44.236Z,99.90
2018-09-28T05:13:12.660Z,99.90
2018-09-28T05:15:40.954Z,99.90
2018-09-28T05:18:09.574Z,99.90
2018-09-28T05:20:37.949Z,99.90
2018-09-28T05:23:06.328Z,99.90
2018-09-28T05:25:34.842Z,99.90
2018-09-28T05:28:03.255Z,99.90
2018-09-28T05:30:31.599Z,99.90
2018-09-28T05:33:00.139Z,99.90
2018-09-28T05:35:28.621Z,99.90
2018-09-28T05:37:57.131Z,99.90
2018-09-28T05:40:25.528Z,99.90
2018-09-28T05:42:53.984Z,99.90
2018-09-28T05:45:22.469Z,99.90
2018-09-28T05:47:50.853Z,99.90
2018-09-28T05:50:19.297Z,99.90
2018-09-28T05:52:47.678Z,99.90
2018-09-28T05:55:16.056Z,99.90
2018-09-28T05:57:44.416Z,99.90
2018-09-28T06:00:18.060Z,99.90
2018-09-28T06:02:52.030Z,99.90
2018-09-28T06:05:25.937Z,99.90
2018-09-28T06:07:54.385Z,99.90
2018-09-28T06:10:22.720Z,99.90
2018-09-28T06:12:51.062Z,99.90
2018-09-28T06:15:19.426Z,99.90
2018-09-28T06:17:47.918Z,99.90
2018-09-28T06:20:16.332Z,99.90
2018-09-28T06:22:44.710Z,99.90
2018-09-28T06:25:13.165Z,99.90
2018-09-28T06:27:41.554Z,99.90
2018-09-28T06:30:09.928Z,99.90
2018-09-28T06:32:38.318Z,99.90
2018-09-28T06:35:06.706Z,99.90
2018-09-28T06:37:35.089Z,99.90
2018-09-28T06:40:03.486Z,99.90
2018-09-28T06:42:31.999Z,99.90
2018-09-28T06:45:01.094Z,99.90
2018-09-28T06:47:29.551Z,99.90
2018-09-28T06:49:57.946Z,99.90
2018-09-28T06:52:26.498Z,99.90
2018-09-28T06:54:55.030Z,99.90
2018-09-28T06:57:23.377Z,99.90
2018-09-28T06:59:52.002Z,99.90
2018-09-28T07:02:20.516Z,99.90
2018-09-28T07:04:49.102Z,99.90
2018-09-28T07:07:17.461Z,99.90
2018-09-28T07:09:45.853Z,99.90
2018-09-28T07:12:14.211Z,99.90
2018-09-28T07:14:42.563Z,99.90
2018-09-28T07:17:10.993Z,99.90
2018-09-28T07:19:39.718Z,99.90
2018-09-28T07:22:08.891Z,99.90
2018-09-28T07:24:37.344Z,99.90
2018-09-28T07:27:05.942Z,99.90
2018-09-28T07:29:34.623Z,99.90
2018-09-28T07:32:02.994Z,99.90
2018-09-28T07:34:31.420Z,99.90
2018-09-28T07:36:59.859Z,99.90
2018-09-28T07:39:28.166Z,99.90
2018-09-28T07:41:56.695Z,99.90
2018-09-28T07:44:25.118Z,99.90
2018-09-28T07:46:53.515Z,99.90
2018-09-28T07:49:21.995Z,99.90
2018-09-28T07:51:50.290Z,99.90
2018-09-28T07:54:18.694Z,99.90
2018-09-28T07:56:47.041Z,99.90
2018-09-28T07:59:15.431Z,99.90
2018-09-28T08:01:43.930Z,99.90
2018-09-28T08:04:12.458Z,99.90
2018-09-28T08:06:40.830Z,99.90
2018-09-28T08:09:10.422Z,99.90
2018-09-28T08:11:38.869Z,99.90
2018-09-28T08:14:08.185Z,99.90
2018-09-28T08:16:36.716Z,99.90
2018-09-28T08:19:05.068Z,99.90
2018-09-28T08:21:33.401Z,99.90
2018-09-28T08:24:02.231Z,99.90
2018-09-28T08:26:31.427Z,99.90
2018-09-28T08:28:59.894Z,99.90
2018-09-28T08:31:28.473Z,99.90
2018-09-28T08:33:56.902Z,99.90
2018-09-28T08:36:26.165Z,99.90
2018-09-28T08:38:54.422Z,99.90
2018-09-28T08:41:22.920Z,99.90
2018-09-28T08:43:51.277Z,99.90
2018-09-28T08:46:20.173Z,99.90
2018-09-28T08:48:49.436Z,99.90
2018-09-28T08:51:18.124Z,99.90
2018-09-28T08:53:46.597Z,99.90
2018-09-28T08:56:15.071Z,99.90
2018-09-28T08:58:43.409Z,99.90
2018-09-28T09:01:11.874Z,99.90
2018-09-28T09:03:40.193Z,99.90
2018-09-28T09:06:08.613Z,99.90
2018-09-28T09:08:37.013Z,99.90
2018-09-28T09:11:05.414Z,99.90
2018-09-28T09:13:33.823Z,99.90
2018-09-28T09:16:02.810Z,99.90
2018-09-28T09:18:31.228Z,99.90
2018-09-28T09:20:59.639Z,99.90
2018-09-28T09:23:28.040Z,99.90
2018-09-28T09:25:56.421Z,99.90
2018-09-28T09:28:24.757Z,99.90
2018-09-28T09:30:53.092Z,99.90
2018-09-28T09:33:21.442Z,99.90
2018-09-28T09:35:49.894Z,99.90
2018-09-28T09:38:18.445Z,99.90
2018-09-28T09:40:46.824Z,99.90
2018-09-28T09:43:15.342Z,99.90
2018-09-28T09:45:43.710Z,99.90
2018-09-28T09:48:12.030Z,99.90
2018-09-28T09:50:40.594Z,99.90
2018-09-28T09:53:08.961Z,99.90
2018-09-28T09:55:37.289Z,99.90
2018-09-28T09:58:05.901Z,99.90
2018-09-28T10:00:39.551Z,99.90
2018-09-28T10:03:13.495Z,99.90
2018-09-28T10:05:42.033Z,99.90
2018-09-28T10:08:10.422Z,99.90
2018-09-28T10:10:38.749Z,99.90
2018-09-28T10:13:07.156Z,99.90
2018-09-28T10:15:35.542Z,99.90
2018-09-28T10:18:03.867Z,99.90
2018-09-28T10:20:32.199Z,99.90
2018-09-28T10:23:00.590Z,99.90
2018-09-28T10:25:29.011Z,99.90
2018-09-28T10:27:57.432Z,99.90
2018-09-28T10:30:26.058Z,99.90
2018-09-28T10:32:54.402Z,99.90
2018-09-28T10:35:22.813Z,99.90
2018-09-28T10:37:51.286Z,99.90
2018-09-28T10:40:19.690Z,99.90
2018-09-28T10:42:48.324Z,99.90
2018-09-28T10:45:16.852Z,99.90
2018-09-28T10:47:45.144Z,99.90
2018-09-28T10:50:13.523Z,99.90
2018-09-28T10:52:41.955Z,99.90
2018-09-28T10:55:10.517Z,99.90
2018-09-28T10:57:39.447Z,99.90
2018-09-28T11:00:07.856Z,99.90
2018-09-28T11:02:36.330Z,99.90
2018-09-28T11:05:04.850Z,99.90
2018-09-28T11:07:34.609Z,99.90
2018-09-28T11:10:02.957Z,99.90
2018-09-28T11:12:31.357Z,99.90
2018-09-28T11:14:59.701Z,99.90
2018-09-28T11:17:28.079Z,99.90
2018-09-28T11:19:56.702Z,99.90
2018-09-28T11:22:25.057Z,99.90
2018-09-28T11:24:53.598Z,99.90
2018-09-28T11:27:22.010Z,99.90
2018-09-28T11:29:50.298Z,99.90
2018-09-28T11:32:18.896Z,99.90
2018-09-28T11:34:47.207Z,99.90
2018-09-28T11:37:15.554Z,99.90
2018-09-28T11:39:44.134Z,99.90
2018-09-28T11:42:12.390Z,99.90
2018-09-28T11:44:40.723Z,99.40
2018-09-28T11:47:09.215Z,99.80
2018-09-28T11:49:37.583Z,99.90
2018-09-28T11:52:05.995Z,99.90
2018-09-28T11:54:34.450Z,98.60
2018-09-28T11:57:02.918Z,99.80
2018-09-28T11:59:31.612Z,99.90
2018-09-28T12:01:59.974Z,99.90
2018-09-28T12:04:28.373Z,99.90
2018-09-28T12:06:57.011Z,99.40
2018-09-28T12:09:25.349Z,98.90
2018-09-28T12:11:53.594Z,98.40
2018-09-28T12:14:22.055Z,99.90
2018-09-28T12:16:50.507Z,96.60
2018-09-28T12:19:18.845Z,98.40
2018-09-28T12:21:47.333Z,97.90
2018-09-28T12:24:15.663Z,97.10
2018-09-28T12:26:44.393Z,97.40
2018-09-28T12:29:12.981Z,95.90
2018-09-28T12:31:41.462Z,96.00
2018-09-28T12:34:10.014Z,97.50
2018-09-28T12:36:38.395Z,98.30
2018-09-28T12:39:09.009Z,98.60
2018-09-28T12:41:37.289Z,98.80
2018-09-28T12:44:05.906Z,98.30
2018-09-28T12:46:34.941Z,98.50
2018-09-28T12:49:03.410Z,99.30
2018-09-28T12:51:31.773Z,99.00
2018-09-28T12:54:00.360Z,98.30
2018-09-28T12:56:28.883Z,98.00
2018-09-28T12:58:57.353Z,98.50
2018-09-28T13:01:25.967Z,99.30
2018-09-28T13:03:54.410Z,98.10
2018-09-28T13:06:22.852Z,98.80
2018-09-28T13:08:51.289Z,97.50
2018-09-28T13:11:19.571Z,98.40
2018-09-28T13:13:48.182Z,98.50
2018-09-28T13:16:16.780Z,99.90
2018-09-28T13:18:45.396Z,99.60
2018-09-28T13:21:13.698Z,99.90
2018-09-28T13:23:42.081Z,99.90
2018-09-28T13:26:10.428Z,99.90
2018-09-28T13:28:38.805Z,99.90
2018-09-28T13:31:07.161Z,99.90
2018-09-28T13:33:35.659Z,99.90
2018-09-28T13:36:03.990Z,99.90
2018-09-28T13:38:32.541Z,99.90
2018-09-28T13:41:00.904Z,99.90
2018-09-28T13:43:29.415Z,99.90
2018-09-28T13:45:57.900Z,99.90
2018-09-28T13:48:26.352Z,99.90
2018-09-28T13:50:54.752Z,99.90
2018-09-28T13:53:23.094Z,99.90
2018-09-28T13:55:52.028Z,99.90
2018-09-28T13:58:20.404Z,99.90
2018-09-28T14:00:49.052Z,99.90
2018-09-28T14:03:24.193Z,99.10
2018-09-28T14:05:52.747Z,99.50
2018-09-28T14:08:21.195Z,97.90
2018-09-28T14:10:49.649Z,98.50
2018-09-28T14:13:18.137Z,98.10
2018-09-28T14:15:46.542Z,98.10
2018-09-28T14:18:15.033Z,98.20
2018-09-28T14:20:43.463Z,98.10
2018-09-28T14:23:11.742Z,98.30
2018-09-28T14:25:40.229Z,99.10
2018-09-28T14:28:08.779Z,99.10
2018-09-28T14:30:37.127Z,98.80
2018-09-28T14:33:05.434Z,98.50
2018-09-28T14:35:33.838Z,98.10
2018-09-28T14:38:02.285Z,97.40
2018-09-28T14:40:30.689Z,97.60
2018-09-28T14:43:02.008Z,97.20
2018-09-28T14:45:30.845Z,97.30
2018-09-28T14:47:59.316Z,97.20
2018-09-28T14:50:27.868Z,97.50
2018-09-28T14:52:56.190Z,97.60
2018-09-28T14:55:24.638Z,97.80
2018-09-28T14:57:53.019Z,97.10
2018-09-28T15:00:21.447Z,96.90
2018-09-28T15:02:49.913Z,97.30
2018-09-28T15:05:18.331Z,97.40
2018-09-28T15:07:46.740Z,97.20
2018-09-28T15:10:15.151Z,97.70
2018-09-28T15:12:43.548Z,96.20
2018-09-28T15:15:12.126Z,96.80
2018-09-28T15:17:40.543Z,96.90
2018-09-28T15:20:09.057Z,97.90
2018-09-28T15:22:37.518Z,98.40
2018-09-28T15:25:06.032Z,98.40
2018-09-28T15:27:34.470Z,98.80
2018-09-28T15:30:03.071Z,99.40
2018-09-28T15:32:31.371Z,99.50
2018-09-28T15:34:59.913Z,99.70
2018-09-28T15:37:28.274Z,99.90
2018-09-28T15:39:56.742Z,99.90
2018-09-28T15:42:25.138Z,99.90
2018-09-28T15:44:53.679Z,99.90
2018-09-28T15:47:22.181Z,99.90
2018-09-28T15:49:50.758Z,99.90
2018-09-28T15:52:19.157Z,99.90
2018-09-28T15:54:47.641Z,99.90
2018-09-28T15:57:16.079Z,99.90
2018-09-28T15:59:44.467Z,99.90
2018-09-28T16:02:12.942Z,99.90
2018-09-28T16:04:41.333Z,99.90
2018-09-28T16:07:09.939Z,99.90
2018-09-28T16:09:38.321Z,99.90
2018-09-28T16:12:06.846Z,99.90
2018-09-28T16:14:35.258Z,99.90
2018-09-28T16:17:03.626Z,99.90
2018-09-28T16:19:32.027Z,99.90
2018-09-28T16:22:00.448Z,99.90
2018-09-28T16:24:28.918Z,99.90
2018-09-28T16:26:57.563Z,99.90
2018-09-28T16:29:25.945Z,99.90
2018-09-28T16:31:54.763Z,99.90
2018-09-28T16:34:23.194Z,99.90
2018-09-28T16:36:52.053Z,99.90
2018-09-28T16:39:20.386Z,99.90
2018-09-28T16:41:48.744Z,99.90
2018-09-28T16:44:17.259Z,99.90
2018-09-28T16:46:45.683Z,99.90
2018-09-28T16:49:14.238Z,99.90
2018-09-28T16:51:42.730Z,99.90
2018-09-28T16:54:11.142Z,99.90
2018-09-28T16:56:39.589Z,99.90
2018-09-28T16:59:08.133Z,99.90
2018-09-28T17:01:36.571Z,99.90
2018-09-28T17:04:04.904Z,99.90
2018-09-28T17:06:33.372Z,99.90
2018-09-28T17:09:01.797Z,99.90
2018-09-28T17:11:30.317Z,99.90
2018-09-28T17:13:58.707Z,99.90
2018-09-28T17:16:27.074Z,99.90
2018-09-28T17:18:55.534Z,99.90
2018-09-28T17:21:23.921Z,99.90
2018-09-28T17:23:52.450Z,99.90
2018-09-28T17:26:20.918Z,99.90
2018-09-28T17:28:49.454Z,99.90
2018-09-28T17:31:17.823Z,99.90
2018-09-28T17:33:46.197Z,99.90
2018-09-28T17:36:14.610Z,99.90
2018-09-28T17:38:42.955Z,99.90
2018-09-28T17:41:11.334Z,99.90
2018-09-28T17:43:40.426Z,99.90
2018-09-28T17:46:08.834Z,99.90
2018-09-28T17:48:37.239Z,99.90
2018-09-28T17:51:05.590Z,99.90
2018-09-28T17:53:34.087Z,99.90
2018-09-28T17:56:02.512Z,99.90
2018-09-28T17:58:30.959Z,99.90
2018-09-28T18:00:59.850Z,99.90
2018-09-28T18:03:28.365Z,99.90
2018-09-28T18:05:56.854Z,99.90
2018-09-28T18:08:25.777Z,99.90
2018-09-28T18:10:54.248Z,99.90
2018-09-28T18:13:22.690Z,99.90
2018-09-28T18:15:51.136Z,99.90
2018-09-28T18:18:19.689Z,99.90
2018-09-28T18:20:48.019Z,99.90
2018-09-28T18:23:16.422Z,99.90
2018-09-28T18:25:44.998Z,99.90
2018-09-28T18:28:13.510Z,99.90
2018-09-28T18:30:41.871Z,99.90
2018-09-28T18:33:10.359Z,99.90
2018-09-28T18:35:38.808Z,99.90
2018-09-28T18:38:07.282Z,99.90
2018-09-28T18:40:35.771Z,99.90
2018-09-28T18:43:04.144Z,99.90
2018-09-28T18:45:32.540Z,99.90
2018-09-28T18:48:00.996Z,99.90
2018-09-28T18:50:29.419Z,99.90
2018-09-28T18:52:58.012Z,99.90
2018-09-28T18:55:26.418Z,99.90
2018-09-28T18:57:54.816Z,99.90
2018-09-28T19:00:23.160Z,99.90
2018-09-28T19:02:51.606Z,99.90
2018-09-28T19:05:19.955Z,99.90
2018-09-28T19:07:48.983Z,99.90
2018-09-28T19:10:17.419Z,99.90
2018-09-28T19:12:45.943Z,99.90
2018-09-28T19:15:14.298Z,99.90
2018-09-28T19:17:42.762Z,99.90
2018-09-28T19:20:11.153Z,99.90
2018-09-28T19:22:39.704Z,99.90
2018-09-28T19:25:07.927Z,99.90
2018-09-28T19:27:36.311Z,99.90
2018-09-28T19:30:05.237Z,99.90
2018-09-28T19:32:33.672Z,99.90
2018-09-28T19:35:02.346Z,99.90
2018-09-28T19:37:30.784Z,99.90
2018-09-28T19:39:59.522Z,99.90
2018-09-28T19:42:28.094Z,99.90
2018-09-28T19:44:56.638Z,99.90
2018-09-28T19:47:25.140Z,99.90
2018-09-28T19:49:53.807Z,99.90
2018-09-28T19:52:22.334Z,99.90
2018-09-28T19:54:50.874Z,99.90
2018-09-28T19:57:19.228Z,99.90
2018-09-28T19:59:47.637Z,99.90
2018-09-28T20:02:16.119Z,99.90
2018-09-28T20:04:44.536Z,99.90
2018-09-28T20:07:12.910Z,99.90
2018-09-28T20:09:41.351Z,99.90
2018-09-28T20:12:09.946Z,99.90
2018-09-28T20:14:38.542Z,99.90
2018-09-28T20:17:07.842Z,99.90
2018-09-28T20:19:36.343Z,99.90
2018-09-28T20:22:08.532Z,99.90
2018-09-28T20:24:37.005Z,99.90
2018-09-28T20:27:05.617Z,99.90
2018-09-28T20:29:33.997Z,99.90
2018-09-28T20:32:02.463Z,99.90
2018-09-28T20:34:31.107Z,99.90
2018-09-28T20:36:59.661Z,99.90
2018-09-28T20:39:28.041Z,99.90
2018-09-28T20:41:56.380Z,99.90
2018-09-28T20:44:24.776Z,99.90
2018-09-28T20:46:53.273Z,99.90
2018-09-28T20:49:21.628Z,99.90
2018-09-28T20:51:50.158Z,99.90
2018-09-28T20:54:18.687Z,99.90
2018-09-28T20:56:47.061Z,99.90
2018-09-28T20:59:15.570Z,99.90
2018-09-28T21:01:44.018Z,99.90
2018-09-28T21:04:12.391Z,99.90
2018-09-28T21:06:40.989Z,99.90
2018-09-28T21:09:10.230Z,99.90
2018-09-28T21:11:38.657Z,99.90
2018-09-28T21:14:07.483Z,99.90
2018-09-28T21:16:35.873Z,99.90
2018-09-28T21:19:04.481Z,99.90
2018-09-28T21:21:32.892Z,99.90
2018-09-28T21:24:01.375Z,99.90
2018-09-28T21:26:29.847Z,99.90
2018-09-28T21:28:58.380Z,99.90
2018-09-28T21:31:26.703Z,99.90
2018-09-28T21:33:55.097Z,99.90
2018-09-28T21:36:24.953Z,99.90
2018-09-28T21:38:53.843Z,99.90
2018-09-28T21:41:22.509Z,99.90
2018-09-28T21:43:50.912Z,99.90
2018-09-28T21:46:19.257Z,99.90
2018-09-28T21:48:47.713Z,99.90
2018-09-28T21:51:16.185Z,99.90
2018-09-28T21:53:44.557Z,99.90
2018-09-28T21:56:12.917Z,99.90
2018-09-28T21:58:41.284Z,99.90
2018-09-28T22:01:09.798Z,99.90
2018-09-28T22:03:38.563Z,99.90
2018-09-28T22:06:06.946Z,99.90
2018-09-28T22:08:35.390Z,99.90
2018-09-28T22:11:03.769Z,99.90
2018-09-28T22:13:32.094Z,99.90
2018-09-28T22:16:00.569Z,99.90
2018-09-28T22:18:29.005Z,99.90
2018-09-28T22:20:57.430Z,99.90
2018-09-28T22:23:25.942Z,99.90
2018-09-28T22:25:54.370Z,99.90
2018-09-28T22:28:22.826Z,99.90
2018-09-28T22:30:51.482Z,99.90
2018-09-28T22:33:19.913Z,99.90
2018-09-28T22:35:48.405Z,99.90
2018-09-28T22:38:16.844Z,99.90
2018-09-28T22:40:45.205Z,99.90
2018-09-28T22:43:13.806Z,99.90
2018-09-28T22:45:42.165Z,99.90
2018-09-28T22:48:10.513Z,99.90
2018-09-28T22:50:38.961Z,99.90
2018-09-28T22:53:07.453Z,99.90
2018-09-28T22:55:35.921Z,99.90
2018-09-28T22:58:04.330Z,99.90
2018-09-28T23:00:32.816Z,99.90
2018-09-28T23:03:01.249Z,99.90
2018-09-28T23:05:29.732Z,99.90
2018-09-28T23:07:58.507Z,99.90
2018-09-28T23:10:26.984Z,99.90
2018-09-28T23:12:55.430Z,99.90
2018-09-28T23:15:23.901Z,99.90
2018-09-28T23:17:52.391Z,99.90
2018-09-28T23:20:20.994Z,99.90
2018-09-28T23:22:49.412Z,99.90
2018-09-28T23:25:17.734Z,99.90
2018-09-28T23:27:46.197Z,99.90
2018-09-28T23:30:14.559Z,99.90
2018-09-28T23:32:42.907Z,99.90
2018-09-28T23:35:11.354Z,99.90
2018-09-28T23:37:39.902Z,99.90
2018-09-28T23:40:08.317Z,99.90
2018-09-28T23:42:36.782Z,99.90
2018-09-28T23:45:05.289Z,99.90
2018-09-28T23:47:33.789Z,99.90
2018-09-28T23:50:02.009Z,99.90
2018-09-28T23:52:30.461Z,99.90
2018-09-28T23:54:58.865Z,99.90
2018-09-28T23:57:27.445Z,99.90
2018-09-28T23:59:56.061Z,99.90
